Time;durP1;ratioP1;P1;durP2;ratioP2;P2;SDS_P1;SDS_P2;PMS_P1;PMS_P2;Temp;Humidity;BMP_temperature;BMP_pressure;BME280_temperature;BME280_humidity;BME280_pressure;Samples;Min_cycle;Max_cycle;Signal;HPM_P1;HPM_P2
2022/05/10 00:00:06;;;;;;;10.48;4.15;;;;;;;14.63;65.55;102087.25;5061295;28;20472;-79
2022/05/10 00:02:33;;;;;;;8.80;4.20;;;;;;;14.62;65.56;102079.41;5060263;28;20048;-79
2022/05/10 00:04:59;;;;;;;6.82;4.20;;;;;;;14.60;65.86;102076.81;5061175;28;20040;-79
2022/05/10 00:07:27;;;;;;;7.25;4.13;;;;;;;14.59;65.61;102075.09;5078697;28;20074;-79
2022/05/10 00:09:53;;;;;;;5.78;3.88;;;;;;;14.57;65.44;102075.16;5031390;28;20028;-79
2022/05/10 00:12:18;;;;;;;6.03;4.10;;;;;;;14.57;65.68;102072.53;5058256;28;20070;-79
2022/05/10 00:14:44;;;;;;;5.43;3.83;;;;;;;14.56;65.39;102069.91;5057358;28;20056;-79
2022/05/10 00:17:35;;;;;;;7.45;4.15;;;;;;;14.54;65.49;102064.69;5058930;28;20051;-79
2022/05/10 00:20:01;;;;;;;7.63;4.07;;;;;;;14.54;65.49;102066.47;5073897;28;20280;-79
2022/05/10 00:22:27;;;;;;;7.55;4.00;;;;;;;14.52;65.65;102070.94;5060401;28;20036;-79
2022/05/10 00:24:52;;;;;;;6.90;3.97;;;;;;;14.52;65.76;102070.94;5043719;28;20044;-79
2022/05/10 00:27:18;;;;;;;4.95;4.05;;;;;;;14.50;65.82;102060.47;5059339;28;20263;-79
2022/05/10 00:29:43;;;;;;;4.30;3.95;;;;;;;14.50;65.67;102070.16;5043229;28;20044;-79
2022/05/10 00:32:09;;;;;;;7.53;4.60;;;;;;;14.47;65.63;102063.19;5044036;28;20044;-79
2022/05/10 00:34:35;;;;;;;9.32;4.45;;;;;;;14.47;65.58;102067.63;5077153;28;20032;-79
2022/05/10 00:37:01;;;;;;;5.78;4.00;;;;;;;14.46;65.81;102060.63;5048068;28;20020;-79
2022/05/10 00:39:26;;;;;;;7.85;4.38;;;;;;;14.45;65.82;102065.03;5059668;28;20309;-79
2022/05/10 00:41:58;;;;;;;6.05;4.18;;;;;;;14.43;65.95;102056.34;5060016;28;20029;-79
2022/05/10 00:44:36;;;;;;;7.32;4.20;;;;;;;14.42;65.66;102057.25;5077124;28;20062;-79
2022/05/10 00:47:13;;;;;;;5.07;3.97;;;;;;;14.40;65.79;102052.03;5060236;28;20221;-79
2022/05/10 00:49:50;;;;;;;10.75;4.72;;;;;;;14.39;66.00;102044.19;5050913;28;20021;-79
2022/05/10 00:52:15;;;;;;;7.65;5.07;;;;;;;14.37;66.04;102052.16;5059336;28;20033;-79
2022/05/10 00:54:54;;;;;;;5.95;4.22;;;;;;;14.37;66.05;102046.00;5077669;28;20032;-79
2022/05/10 00:57:49;;;;;;;;;;;;;;;14.35;66.01;102042.56;5072694;28;20064;-79
2022/05/10 01:00:21;;;;;;;8.40;4.10;;;;;;;14.33;65.70;102039.13;5046807;28;19909;-79
2022/05/10 01:02:47;;;;;;;6.18;3.90;;;;;;;14.31;65.69;102031.28;5028602;28;20285;-79
2022/05/10 01:05:37;;;;;;;7.75;4.15;;;;;;;14.32;66.04;102032.16;5041968;28;20047;-79
2022/05/10 01:08:27;;;;;;;6.10;3.97;;;;;;;14.29;66.11;102027.84;5041777;28;20060;-79
2022/05/10 01:11:12;;;;;;;7.03;4.65;;;;;;;14.30;65.86;102026.09;5074444;28;20312;-79
2022/05/10 01:13:44;;;;;;;6.10;4.10;;;;;;;14.29;65.84;102025.22;5059380;28;20020;-79
2022/05/10 01:16:12;;;;;;;5.40;4.07;;;;;;;14.28;65.93;102014.72;5053598;28;20098;-79
2022/05/10 01:18:39;;;;;;;5.18;4.43;;;;;;;14.27;65.80;102013.88;5059069;28;20032;-79
2022/05/10 01:21:24;;;;;;;5.32;3.88;;;;;;;14.27;65.58;102007.75;5076238;28;20268;-79
2022/05/10 01:24:02;;;;;;;8.73;4.32;;;;;;;14.26;65.82;102006.91;5046329;28;20028;-79
2022/05/10 01:26:54;;;;;;;7.85;4.43;;;;;;;14.26;66.00;101999.00;5073574;28;20040;-79
2022/05/10 01:29:28;;;;;;;8.00;4.47;;;;;;;14.24;65.71;101998.19;5046686;28;20454;-79
2022/05/10 01:34:44;;;;;;;;;;;;;;;14.23;65.98;101996.47;5067841;28;20063;-79
2022/05/10 01:37:18;;;;;;;9.25;4.63;;;;;;;14.24;65.72;101989.41;5077325;28;20127;-79
2022/05/10 01:39:51;;;;;;;6.70;4.20;;;;;;;14.22;65.58;101984.22;5075955;28;20396;-79
2022/05/10 01:42:30;;;;;;;5.68;4.03;;;;;;;14.23;65.94;101985.94;5076483;28;20344;-79
2022/05/10 01:45:10;;;;;;;6.18;4.18;;;;;;;14.22;65.85;101973.66;5057181;28;20279;-79
2022/05/10 01:47:45;;;;;;;7.63;4.32;;;;;;;14.21;65.83;101966.69;5069182;28;20054;-79
2022/05/10 01:50:44;;;;;;;6.82;4.47;;;;;;;14.21;65.48;101978.09;5058707;28;20032;-79
2022/05/10 01:53:15;;;;;;;7.78;4.43;;;;;;;14.21;65.63;101967.53;5069441;28;20239;-79
2022/05/10 01:55:44;;;;;;;4.68;4.28;;;;;;;14.22;65.73;101957.84;5076722;28;20036;-79
2022/05/10 01:58:14;;;;;;;6.57;4.40;;;;;;;14.23;65.78;101964.84;5059229;28;20035;-79
2022/05/10 02:00:43;;;;;;;6.10;4.70;;;;;;;14.23;65.48;101954.31;5076026;28;20063;-79
2022/05/10 02:03:18;;;;;;;6.63;4.50;;;;;;;14.23;65.31;101954.31;5069010;28;20043;-79
2022/05/10 02:06:08;;;;;;;7.82;4.70;;;;;;;14.22;65.55;101942.03;5076424;28;20051;-79
2022/05/10 02:08:51;;;;;;;4.45;4.03;;;;;;;14.21;65.39;101940.34;5056083;28;20029;-79
2022/05/10 02:11:18;;;;;;;6.90;4.30;;;;;;;14.22;65.07;101942.03;5052102;28;20123;-79
2022/05/10 02:14:14;;;;;;;5.50;4.30;;;;;;;14.23;65.03;101938.50;5049487;28;20082;-79
2022/05/10 02:16:45;;;;;;;7.53;4.38;;;;;;;14.21;65.18;101938.56;5062648;28;20059;-79
2022/05/10 02:19:23;;;;;;;7.97;4.10;;;;;;;14.23;64.97;101930.59;5077295;28;20066;-79
2022/05/10 02:22:01;;;;;;;7.53;4.03;;;;;;;14.24;65.44;101939.38;5076040;28;20107;-79
2022/05/10 02:24:38;;;;;;;5.68;4.10;;;;;;;14.24;65.30;101923.56;5075630;28;20024;-79
2022/05/10 02:27:10;;;;;;;4.50;4.10;;;;;;;14.23;65.31;101922.69;5058294;28;20107;-79
2022/05/10 02:29:54;;;;;;;8.55;5.38;;;;;;;14.23;65.43;101916.59;5056435;28;20290;-79
2022/05/10 02:33:06;;;;;;;7.97;4.57;;;;;;;14.23;65.15;101914.81;5068180;28;20036;-79
2022/05/10 02:35:37;;;;;;;4.65;4.18;;;;;;;14.24;65.06;101916.50;5027984;28;20044;-79
2022/05/10 02:38:04;;;;;;;5.43;4.30;;;;;;;14.23;65.01;101911.31;5071916;28;20090;-79
2022/05/10 02:40:30;;;;;;;4.82;4.10;;;;;;;14.23;64.97;101912.16;5057842;28;20052;-79
2022/05/10 02:42:55;;;;;;;6.22;4.40;;;;;;;14.24;65.27;101913.00;5076198;28;20264;-79
2022/05/10 02:45:22;;;;;;;7.93;5.00;;;;;;;14.23;65.53;101909.53;5071538;28;20064;-79
2022/05/10 02:47:49;;;;;;;5.47;4.57;;;;;;;14.24;65.56;101910.38;5050198;28;20089;-79
2022/05/10 02:50:31;;;;;;;4.85;4.25;;;;;;;14.24;65.07;101911.22;5076278;28;20054;-79
2022/05/10 02:52:56;;;;;;;4.90;4.28;;;;;;;14.24;65.12;101905.97;5080044;28;20069;-79
2022/05/10 02:55:38;;;;;;;7.30;4.82;;;;;;;14.23;65.24;101906.91;5061923;28;20091;-79
2022/05/10 02:58:15;;;;;;;7.05;4.93;;;;;;;14.23;65.23;101903.41;5080366;28;20127;-79
2022/05/10 03:00:41;;;;;;;7.15;4.85;;;;;;;14.24;65.06;101902.47;5080287;28;20044;-80
2022/05/10 03:03:12;;;;;;;6.85;4.60;;;;;;;14.24;64.99;101891.94;5079815;28;20220;-80
2022/05/10 03:05:37;;;;;;;7.43;4.78;;;;;;;14.24;65.21;101892.78;5079970;28;20063;-81
2022/05/10 03:08:04;;;;;;;4.88;4.35;;;;;;;14.24;65.44;101884.88;5061511;28;20314;-81
2022/05/10 03:10:30;;;;;;;5.95;4.05;;;;;;;14.24;65.00;101882.25;5079426;28;20115;-81
2022/05/10 03:12:55;;;;;;;6.55;4.45;;;;;;;14.24;64.96;101890.16;5061632;28;20028;-81
2022/05/10 03:15:21;;;;;;;4.63;3.97;;;;;;;14.24;64.98;101881.41;5079501;28;20052;-81
2022/05/10 03:17:46;;;;;;;5.20;4.35;;;;;;;14.24;64.91;101868.22;5061524;28;20024;-81
2022/05/10 03:20:12;;;;;;;8.70;5.40;;;;;;;14.24;64.98;101881.41;5061630;28;20044;-80
2022/05/10 03:22:37;;;;;;;4.97;4.30;;;;;;;14.24;64.82;101876.13;5041811;28;20649;-80
2022/05/10 03:25:03;;;;;;;5.00;4.15;;;;;;;14.24;64.92;101876.97;5057716;28;20040;-81
2022/05/10 03:27:28;;;;;;;6.45;4.25;;;;;;;14.25;64.87;101872.59;5078740;28;20055;-81
2022/05/10 03:29:54;;;;;;;7.20;4.80;;;;;;;14.25;65.01;101876.06;5056191;28;20068;-81
2022/05/10 03:32:19;;;;;;;7.22;4.40;;;;;;;14.24;64.82;101866.44;5047481;28;20371;-81
2022/05/10 03:34:54;;;;;;;7.32;4.45;;;;;;;14.23;64.73;101862.09;5061321;28;20032;-81
2022/05/10 03:37:19;;;;;;;5.30;4.20;;;;;;;14.24;64.71;101869.06;5062087;28;20099;-81
2022/05/10 03:39:45;;;;;;;7.68;4.57;;;;;;;14.24;64.94;101868.22;5061397;28;20101;-80
2022/05/10 03:42:11;;;;;;;5.40;4.53;;;;;;;14.24;64.72;101860.31;5079716;28;20050;-80
2022/05/10 03:44:36;;;;;;;4.68;4.20;;;;;;;14.23;64.79;101854.19;5074049;28;20033;-81
2022/05/10 03:47:02;;;;;;;8.38;5.30;;;;;;;14.24;64.67;101861.16;5025026;28;20041;-81
2022/05/10 03:49:27;;;;;;;6.18;4.97;;;;;;;14.23;64.83;101856.84;5051816;28;20024;-81
2022/05/10 03:51:55;;;;;;;6.68;5.18;;;;;;;14.24;64.53;101855.06;5051437;28;20195;-81
2022/05/10 03:54:22;;;;;;;9.55;5.50;;;;;;;14.23;64.68;101856.84;5074728;28;20049;-81
2022/05/10 03:56:47;;;;;;;6.70;4.85;;;;;;;14.24;64.78;101847.16;5061061;28;20263;-81
2022/05/10 03:59:13;;;;;;;9.25;5.32;;;;;;;14.24;64.69;101849.78;5059962;28;20032;-81
2022/05/10 04:01:38;;;;;;;7.68;4.97;;;;;;;14.24;64.98;101844.50;5026885;28;20027;-81
2022/05/10 04:04:04;;;;;;;5.00;4.50;;;;;;;14.24;64.69;101841.88;5077505;28;20059;-81
2022/05/10 04:06:30;;;;;;;7.45;5.30;;;;;;;14.25;64.72;101848.88;5064647;28;20068;-81
2022/05/10 04:08:55;;;;;;;7.43;5.38;;;;;;;14.24;64.60;101840.09;5073579;28;20040;-81
2022/05/10 04:11:21;;;;;;;6.15;4.70;;;;;;;14.24;64.59;101836.59;5060481;28;20086;-80
2022/05/10 04:13:47;;;;;;;5.18;4.63;;;;;;;14.25;64.64;101833.06;5058283;28;20355;-81
2022/05/10 04:16:12;;;;;;;5.07;4.55;;;;;;;14.25;64.84;101831.28;5059228;28;20094;-81
2022/05/10 04:18:37;;;;;;;9.75;5.43;;;;;;;14.26;64.45;101829.50;5069273;28;20032;-81
2022/05/10 04:21:04;;;;;;;15.35;6.85;;;;;;;14.25;64.87;101823.38;5036126;28;20344;-81
2022/05/10 04:23:29;;;;;;;11.40;6.55;;;;;;;14.25;65.22;101828.66;5063574;28;20255;-81
2022/05/10 04:25:55;;;;;;;9.75;6.75;;;;;;;14.26;65.42;101829.50;5078243;28;20081;-81
2022/05/10 04:28:20;;;;;;;10.38;6.25;;;;;;;14.26;65.07;101830.38;5048388;28;20352;-81
2022/05/10 04:30:46;;;;;;;9.13;6.03;;;;;;;14.27;65.30;101824.16;5041731;28;20076;-81
2022/05/10 04:33:11;;;;;;;8.45;6.57;;;;;;;14.27;65.47;101824.16;5075785;28;20364;-81
2022/05/10 04:35:36;;;;;;;11.23;6.97;;;;;;;14.29;65.44;101826.75;5065892;28;20424;-80
2022/05/10 04:38:07;;;;;;;17.13;8.75;;;;;;;14.30;65.87;101817.94;5039799;28;20098;-81
2022/05/10 04:43:18;;;;;;;15.70;8.35;;;;;;;14.31;66.09;101820.47;5055821;28;20031;-81
2022/05/10 04:45:43;;;;;;;12.45;7.43;;;;;;;14.34;65.68;101824.78;5047881;28;20363;-80
2022/05/10 04:48:08;;;;;;;12.73;6.88;;;;;;;14.34;65.88;101814.25;5058736;28;20033;-81
2022/05/10 04:50:34;;;;;;;9.93;7.10;;;;;;;14.34;65.45;101809.81;5076259;28;20041;-81
2022/05/10 04:52:59;;;;;;;9.68;7.10;;;;;;;14.36;65.59;101812.41;5042157;28;20032;-81
2022/05/10 04:55:25;;;;;;;10.55;6.70;;;;;;;14.37;65.79;101812.34;5075640;28;20094;-81
2022/05/10 04:57:50;;;;;;;11.43;7.40;;;;;;;14.37;65.83;101814.97;5058685;28;20055;-81
2022/05/10 05:00:16;;;;;;;13.00;7.10;;;;;;;14.39;66.05;101804.38;5057979;28;20097;-81
2022/05/10 05:02:43;;;;;;;11.13;6.80;;;;;;;14.40;65.68;101804.28;5058843;28;20105;-81
2022/05/10 05:05:10;;;;;;;11.65;7.70;;;;;;;14.42;65.78;101806.88;5075992;28;20409;-81
2022/05/10 05:07:36;;;;;;;13.82;8.23;;;;;;;14.42;65.99;101804.22;5075419;28;20044;-81
2022/05/10 05:10:03;;;;;;;12.68;7.03;;;;;;;14.45;65.66;101805.91;5076459;28;20209;-81
2022/05/10 05:12:31;;;;;;;12.38;6.88;;;;;;;14.48;65.93;101800.47;5057425;28;20263;-81
2022/05/10 05:14:56;;;;;;;14.95;7.53;;;;;;;14.49;65.68;101807.47;5041278;28;20351;-81
2022/05/10 05:17:22;;;;;;;14.82;7.50;;;;;;;14.51;65.67;101808.28;5075577;28;20104;-81
2022/05/10 05:19:48;;;;;;;14.52;8.07;;;;;;;14.53;66.06;101803.78;5068950;28;20045;-81
2022/05/10 05:22:13;;;;;;;13.25;8.18;;;;;;;14.54;66.13;101809.00;5021154;28;20033;-81
2022/05/10 05:24:38;;;;;;;10.10;7.00;;;;;;;14.57;65.94;101808.00;5072528;28;20032;-81
2022/05/10 05:27:04;;;;;;;15.38;8.88;;;;;;;14.57;65.90;101803.66;5040689;28;20108;-81
2022/05/10 05:29:29;;;;;;;17.30;7.68;;;;;;;14.62;65.91;101810.50;5057756;28;20037;-81
2022/05/10 05:31:55;;;;;;;14.02;7.53;;;;;;;14.64;65.90;101813.91;5073508;28;20112;-81
2022/05/10 05:34:20;;;;;;;13.48;7.90;;;;;;;14.65;65.94;101811.22;5039189;28;20051;-81
2022/05/10 05:37:32;;;;;;;20.05;8.52;;;;;;;14.67;66.21;101814.66;5057587;28;20239;-81
2022/05/10 05:39:31;;;;;;;10.70;7.22;;;;;;;14.69;65.88;101806.69;5055075;28;20051;-81
2022/05/10 05:41:57;;;;;;;16.65;7.72;;;;;;;14.71;66.17;101815.38;5053897;28;20328;-81
2022/05/10 05:44:23;;;;;;;16.08;8.40;;;;;;;14.74;66.06;101812.63;5073716;28;20051;-81
2022/05/10 05:46:49;;;;;;;18.00;9.13;;;;;;;14.77;66.41;101805.44;5056731;28;20082;-81
2022/05/10 05:49:14;;;;;;;15.48;8.18;;;;;;;14.80;66.38;101796.53;5045782;28;20037;-81
2022/05/10 05:51:40;;;;;;;20.27;8.40;;;;;;;14.84;66.19;101797.25;5052656;28;20064;-81
2022/05/10 05:54:08;;;;;;;14.07;8.07;;;;;;;14.85;66.48;101793.69;5057718;28;20336;-81
2022/05/10 05:56:34;;;;;;;;;;;;;;;14.87;66.39;101792.69;5074158;28;20044;-81
2022/05/10 05:58:59;;;;;;;12.30;7.63;;;;;;;14.88;66.59;101789.16;5052006;28;19982;-81
2022/05/10 06:01:25;;;;;;;14.43;7.32;;;;;;;14.89;66.65;101790.84;5023023;28;20098;-81
2022/05/10 06:03:51;;;;;;;20.08;9.00;;;;;;;14.91;66.56;101782.88;5038196;28;20497;-81
2022/05/10 06:06:16;;;;;;;10.25;6.82;;;;;;;14.93;66.23;101781.03;5039034;28;20048;-80
2022/05/10 06:08:42;;;;;;;16.67;7.97;;;;;;;14.94;66.38;101773.03;5049997;28;20040;-81
2022/05/10 06:11:08;;;;;;;17.80;8.45;;;;;;;14.98;66.88;101785.16;5058457;28;20032;-81
2022/05/10 06:13:36;;;;;;;19.33;8.65;;;;;;;15.00;67.00;101779.81;5058111;28;20241;-81
2022/05/10 06:16:07;;;;;;;15.63;8.63;;;;;;;15.04;66.83;101783.19;5076534;28;20093;-81
2022/05/10 06:18:33;;;;;;;19.23;7.72;;;;;;;15.06;67.09;101782.22;5071931;28;20040;-81
2022/05/10 06:20:59;;;;;;;19.45;8.50;;;;;;;15.08;67.45;101788.28;5086320;28;20021;-81
2022/05/10 06:23:24;;;;;;;16.95;8.63;;;;;;;15.12;66.95;101774.00;5088513;28;20237;-81
2022/05/10 06:25:49;;;;;;;14.55;7.45;;;;;;;15.16;66.99;101772.94;5071962;28;20013;-81
2022/05/10 06:28:15;;;;;;;10.07;6.18;;;;;;;15.22;66.81;101776.22;5055331;28;20112;-81
2022/05/10 06:30:40;;;;;;;7.28;6.07;;;;;;;15.24;66.78;101772.59;5069967;28;20021;-82
2022/05/10 06:33:06;;;;;;;10.55;6.50;;;;;;;15.27;66.15;101766.31;5068154;28;20037;-82
2022/05/10 06:35:31;;;;;;;16.52;7.45;;;;;;;15.30;66.42;101763.56;5071960;28;20051;-81
2022/05/10 06:40:42;;;;;;;11.95;7.03;;;;;;;15.38;66.04;101756.13;5073527;28;20048;-81
2022/05/10 06:43:08;;;;;;;12.20;7.65;;;;;;;15.43;65.55;101759.41;5089704;28;20038;-81
2022/05/10 06:45:33;;;;;;;8.45;6.35;;;;;;;15.49;65.24;101764.41;5089960;28;20032;-82
2022/05/10 06:47:59;;;;;;;9.25;6.40;;;;;;;15.53;65.59;101754.56;5090395;28;20039;-81
2022/05/10 06:50:25;;;;;;;11.98;6.38;;;;;;;15.57;65.61;101742.06;5069360;28;20340;-81
2022/05/10 06:52:54;;;;;;;9.57;6.53;;;;;;;15.60;65.36;101740.13;5075998;28;20044;-81
2022/05/10 06:55:20;;;;;;;15.38;6.68;;;;;;;15.65;65.58;101747.84;5075137;28;20245;-81
2022/05/10 06:57:46;;;;;;;10.27;6.10;;;;;;;15.68;66.01;101743.28;5075280;28;20044;-81
2022/05/10 07:00:13;;;;;;;10.18;6.53;;;;;;;15.73;65.96;101743.03;5071404;28;20072;-81
2022/05/10 07:02:39;;;;;;;11.20;6.65;;;;;;;15.79;65.83;101744.56;5030122;28;20043;-81
2022/05/10 07:05:06;;;;;;;10.73;6.32;;;;;;;15.84;65.51;101742.56;5064293;28;20064;-81
2022/05/10 07:07:32;;;;;;;11.32;6.22;;;;;;;15.88;65.53;101737.06;5051274;28;20085;-81
2022/05/10 07:09:57;;;;;;;10.20;6.32;;;;;;;15.92;65.46;101743.91;5041649;28;20092;-81
2022/05/10 07:12:22;;;;;;;7.40;6.10;;;;;;;15.96;65.51;101728.75;5056538;28;20383;-81
2022/05/10 07:14:48;;;;;;;14.93;7.20;;;;;;;16.01;65.64;101728.50;5057466;28;20088;-80
2022/05/10 07:17:14;;;;;;;10.85;6.55;;;;;;;16.06;65.82;101731.78;5040879;28;20327;-81
2022/05/10 07:19:39;;;;;;;7.40;5.55;;;;;;;16.09;65.48;101726.38;5068245;28;20340;-81
2022/05/10 07:22:05;;;;;;;9.90;6.40;;;;;;;16.15;64.87;101730.50;5054233;28;20036;-80
2022/05/10 07:24:30;;;;;;;9.32;5.88;;;;;;;16.17;65.27;101737.44;5040361;28;20203;-81
2022/05/10 07:26:56;;;;;;;11.20;6.50;;;;;;;16.18;65.04;101731.19;5036718;28;20059;-80
2022/05/10 07:29:22;;;;;;;10.93;6.72;;;;;;;16.24;65.34;101736.16;5052878;28;20414;-81
2022/05/10 07:31:48;;;;;;;12.60;6.70;;;;;;;16.25;65.32;101729.94;5051964;28;20037;-81
2022/05/10 07:34:15;;;;;;;14.20;6.18;;;;;;;16.28;65.05;101724.53;5050854;28;20082;-81
2022/05/10 07:36:40;;;;;;;15.98;6.40;;;;;;;16.33;65.51;101724.28;5067315;28;20040;-81
2022/05/10 07:39:09;;;;;;;9.02;5.80;;;;;;;16.38;65.55;101727.53;5056823;28;20029;-81
2022/05/10 07:41:36;;;;;;;;;;;;;;;16.44;65.95;101718.44;5058053;28;20028;-81
2022/05/10 07:44:01;;;;;;;8.68;6.03;;;;;;;16.50;65.56;101720.78;5038941;28;19984;-81
2022/05/10 07:46:27;;;;;;;6.32;5.38;;;;;;;16.54;65.34;101718.84;5041541;28;20327;-81
2022/05/10 07:48:52;;;;;;;7.97;5.53;;;;;;;16.60;65.38;101713.22;5073486;28;20062;-81
2022/05/10 07:51:19;;;;;;;11.23;5.32;;;;;;;16.64;65.26;101707.66;5059217;28;20032;-81
2022/05/10 07:53:45;;;;;;;5.93;5.20;;;;;;;16.68;65.51;101709.25;5068733;28;20037;-81
2022/05/10 07:56:11;;;;;;;8.50;5.07;;;;;;;16.75;65.08;101714.19;5067340;28;20060;-81
2022/05/10 07:58:36;;;;;;;10.25;5.20;;;;;;;16.80;64.98;101717.47;5048227;28;20245;-81
2022/05/10 08:01:04;;;;;;;5.65;4.93;;;;;;;16.86;64.92;101715.38;5078065;28;20573;-81
2022/05/10 08:03:30;;;;;;;6.13;4.30;;;;;;;16.89;64.69;101717.00;5047710;28;20291;-81
2022/05/10 08:05:55;;;;;;;6.78;5.20;;;;;;;16.95;64.61;101714.00;5054495;28;20035;-81
2022/05/10 08:08:22;;;;;;;8.85;4.13;;;;;;;17.00;64.47;101717.28;5052297;28;20404;-81
2022/05/10 08:10:49;;;;;;;7.00;4.35;;;;;;;17.05;64.46;101711.75;5060594;28;20060;-81
2022/05/10 08:13:19;;;;;;;11.43;4.38;;;;;;;17.16;64.16;101722.59;5063792;28;20319;-81
2022/05/10 08:15:45;;;;;;;7.57;4.63;;;;;;;17.23;63.95;101721.31;5076632;28;20040;-81
2022/05/10 08:18:11;;;;;;;8.00;4.88;;;;;;;17.28;64.05;101713.13;5057467;28;20052;-81
2022/05/10 08:20:38;;;;;;;9.27;4.88;;;;;;;17.33;63.83;101705.78;5071031;28;20332;-81
2022/05/10 08:23:06;;;;;;;7.57;4.78;;;;;;;17.38;63.50;101708.19;5076068;28;20024;-81
2022/05/10 08:25:32;;;;;;;5.38;4.55;;;;;;;17.43;63.88;101714.94;5075117;28;20051;-82
2022/05/10 08:27:57;;;;;;;6.57;4.22;;;;;;;17.50;63.98;101707.50;5073647;28;20063;-81
2022/05/10 08:30:23;;;;;;;5.22;4.00;;;;;;;17.57;64.40;101710.66;5074707;28;20142;-81
2022/05/10 08:32:48;;;;;;;4.80;4.28;;;;;;;17.62;64.13;101711.25;5076966;28;20044;-81
2022/05/10 08:35:13;;;;;;;5.30;4.10;;;;;;;17.67;63.70;101717.16;5077386;28;20103;-81
2022/05/10 08:37:39;;;;;;;7.28;4.20;;;;;;;17.71;63.24;101716.03;5076503;28;20248;-81
2022/05/10 08:40:06;;;;;;;6.45;4.18;;;;;;;17.74;62.06;101710.56;5044532;28;20040;-81
2022/05/10 08:42:36;;;;;;;4.82;4.32;;;;;;;17.76;62.60;101713.97;5075865;28;20047;-81
2022/05/10 08:45:06;;;;;;;4.57;4.15;;;;;;;17.77;62.86;101710.41;5071900;28;20028;-81
2022/05/10 08:47:32;;;;;;;10.90;4.53;;;;;;;17.79;62.82;101707.63;5059800;28;20028;-81
2022/05/10 08:50:00;;;;;;;5.68;3.78;;;;;;;17.81;63.11;101709.25;5073911;28;20040;-81
2022/05/10 08:52:33;;;;;;;4.93;3.60;;;;;;;17.87;63.20;101717.84;5076354;28;20033;-81
2022/05/10 08:54:59;;;;;;;8.82;4.15;;;;;;;17.88;62.35;101722.19;5058041;28;20166;-81
2022/05/10 08:57:45;;;;;;;8.15;3.33;;;;;;;17.92;61.98;101726.34;5077158;28;20354;-81
2022/05/10 09:00:28;;;;;;;11.07;4.28;;;;;;;17.94;61.50;101732.44;5075108;28;20044;-81
2022/05/10 09:02:58;;;;;;;18.60;4.53;;;;;;;17.99;60.32;101712.69;5076901;28;20224;-81
2022/05/10 09:05:36;;;;;;;13.25;4.30;;;;;;;18.02;61.08;101715.13;5073724;28;20315;-81
2022/05/10 09:08:08;;;;;;;14.23;4.15;;;;;;;18.02;61.49;101725.75;5069579;28;20348;-81
2022/05/10 09:10:57;;;;;;;12.38;4.78;;;;;;;18.02;62.05;101725.75;5075115;28;20367;-81
2022/05/10 09:13:23;;;;;;;8.43;4.63;;;;;;;18.02;60.85;101722.25;5049061;28;20276;-81
2022/05/10 09:15:56;;;;;;;16.48;4.38;;;;;;;18.04;61.52;101723.00;5073978;28;20040;-81
2022/05/10 09:18:27;;;;;;;8.30;4.05;;;;;;;18.04;61.84;101725.66;5073267;28;20028;-82
2022/05/10 09:21:11;;;;;;;7.53;4.45;;;;;;;18.03;61.64;101723.97;5075318;28;20099;-81
2022/05/10 09:24:01;;;;;;;6.25;4.40;;;;;;;18.02;61.99;101730.19;5066154;28;20066;-81
2022/05/10 09:26:37;;;;;;;10.93;4.90;;;;;;;18.04;61.54;101725.66;5069764;28;20031;-81
2022/05/10 09:29:39;;;;;;;17.85;4.88;;;;;;;18.12;61.30;101728.72;5067325;28;20051;-81
2022/05/10 09:35:06;;;;;;;9.00;5.18;;;;;;;18.26;60.38;101713.78;5072869;28;20039;-81
2022/05/10 09:38:06;;;;;;;7.88;5.03;;;;;;;18.31;61.49;101704.63;5075819;28;20032;-81
2022/05/10 09:40:47;;;;;;;10.68;5.10;;;;;;;18.40;60.70;101709.38;5053213;28;21058;-81
2022/05/10 09:43:27;;;;;;;8.85;5.07;;;;;;;18.48;60.66;101716.91;5045129;28;20115;-81
2022/05/10 09:46:19;;;;;;;8.13;5.18;;;;;;;18.48;61.47;101710.72;5074754;28;20119;-81
2022/05/10 09:48:45;;;;;;;7.65;5.07;;;;;;;18.57;61.31;101708.38;5053837;28;20037;-81
2022/05/10 19:50:09;;;;;;;0.93;0.70;;;;;;;15.84;71.38;101547.13;3756517;28;20579;-80
2022/05/10 19:55:01;;;;;;;1.38;1.00;;;;;;;15.78;71.64;101545.66;5075708;28;20066;-80
2022/05/10 19:57:27;;;;;;;1.88;0.95;;;;;;;15.79;70.93;101552.66;5069671;28;20041;-80
2022/05/10 19:59:52;;;;;;;1.63;1.02;;;;;;;15.81;70.86;101557.81;5058930;28;20045;-80
2022/05/10 20:07:45;;;;;;;1.10;0.88;;;;;;;15.48;70.93;101543.59;5052189;28;20082;-80
2022/05/10 20:10:11;;;;;;;3.88;1.30;;;;;;;15.47;70.90;101539.25;5044385;28;20036;-80
2022/05/10 20:12:37;;;;;;;2.83;1.02;;;;;;;15.40;71.17;101537.84;5058926;28;20048;-80
2022/05/10 20:15:04;;;;;;;2.17;0.88;;;;;;;15.33;71.02;101539.06;5075953;28;20127;-80
2022/05/10 20:17:30;;;;;;;5.28;1.48;;;;;;;15.30;70.93;101539.25;5058050;28;20044;-80
2022/05/10 20:19:56;;;;;;;3.58;1.35;;;;;;;15.28;70.71;101541.06;5059979;28;20114;-80
2022/05/10 20:22:21;;;;;;;3.63;1.10;;;;;;;15.26;71.00;101535.91;5058611;28;20033;-80
2022/05/10 20:24:47;;;;;;;4.30;1.10;;;;;;;15.27;70.76;101540.22;5047783;28;20025;-81
2022/05/10 20:27:12;;;;;;;4.35;1.45;;;;;;;15.26;70.52;101537.66;5075362;28;20055;-81
2022/05/10 20:29:38;;;;;;;4.30;1.08;;;;;;;15.20;70.00;101535.34;5072964;28;20040;-80
2022/05/10 20:32:04;;;;;;;2.90;1.20;;;;;;;15.18;69.77;101540.69;5052887;28;20032;-80
2022/05/10 20:34:29;;;;;;;3.75;1.00;;;;;;;15.15;69.30;101532.91;5075606;28;20041;-80
2022/05/10 20:36:54;;;;;;;2.58;1.23;;;;;;;15.14;69.12;101532.06;5057592;28;20111;-80
2022/05/10 20:39:21;;;;;;;4.90;1.00;;;;;;;15.13;68.97;101525.09;5056719;28;20093;-80
2022/05/10 20:41:47;;;;;;;2.50;1.05;;;;;;;15.06;68.70;101513.13;5072821;28;20044;-80
2022/05/10 20:44:13;;;;;;;5.70;1.25;;;;;;;15.06;68.51;101513.13;5074830;28;20427;-81
2022/05/10 20:46:39;;;;;;;3.47;0.98;;;;;;;15.06;68.04;101501.72;5024348;28;20031;-80
2022/05/10 20:49:05;;;;;;;3.95;1.02;;;;;;;15.08;68.10;101489.28;5075087;28;20032;-81
2022/05/10 20:51:30;;;;;;;2.08;1.23;;;;;;;15.07;67.20;101485.81;5075395;28;20075;-80
2022/05/10 20:53:56;;;;;;;1.73;1.00;;;;;;;15.08;67.10;101486.66;5075134;28;20047;-80
2022/05/10 20:56:21;;;;;;;3.15;1.17;;;;;;;15.09;67.38;101502.41;5063789;28;20036;-80
2022/05/10 20:58:46;;;;;;;2.53;1.20;;;;;;;15.07;66.94;101509.56;5056962;28;20169;-80
2022/05/10 21:01:12;;;;;;;3.67;1.27;;;;;;;14.98;65.99;101502.09;5074710;28;20356;-80
2022/05/10 21:03:37;;;;;;;3.45;0.95;;;;;;;15.00;66.72;101504.66;5057707;28;20048;-80
2022/05/10 21:06:04;;;;;;;2.05;1.13;;;;;;;15.01;66.76;101503.72;5058472;28;20035;-80
2022/05/10 21:08:32;;;;;;;6.25;1.40;;;;;;;15.00;66.70;101513.41;5044252;28;21946;-80
2022/05/10 21:11:07;;;;;;;6.60;1.70;;;;;;;14.95;66.04;101515.41;5053725;28;20107;-80
2022/05/10 21:13:33;;;;;;;2.78;1.20;;;;;;;14.92;65.92;101507.69;5056847;28;20443;-80
2022/05/10 21:16:01;;;;;;;4.93;1.48;;;;;;;14.97;66.27;101503.88;5041143;28;20048;-80
2022/05/10 21:18:26;;;;;;;2.97;1.25;;;;;;;15.00;66.61;101496.75;5054807;28;20036;-80
2022/05/10 21:20:53;;;;;;;5.22;1.38;;;;;;;15.04;66.57;101495.66;5054169;28;20312;-80
2022/05/10 21:23:19;;;;;;;5.45;1.30;;;;;;;15.04;66.36;101487.75;5067236;28;20021;-80
2022/05/10 21:25:44;;;;;;;3.17;0.90;;;;;;;15.01;65.69;101480.84;5055767;28;20471;-80
2022/05/10 21:28:10;;;;;;;4.22;1.38;;;;;;;15.03;65.75;101493.97;5065184;28;20094;-80
2022/05/10 21:33:23;;;;;;;4.55;1.20;;;;;;;15.05;65.12;101481.56;5069642;28;20046;-80
2022/05/10 21:35:48;;;;;;;7.37;1.53;;;;;;;15.07;65.43;101492.88;5050778;28;20028;-80
2022/05/10 21:38:17;;;;;;;2.50;1.10;;;;;;;14.98;64.41;101504.72;5050660;28;20085;-80
2022/05/10 21:40:43;;;;;;;2.25;1.15;;;;;;;14.97;64.69;101498.59;5054359;28;20082;-80
2022/05/10 21:43:11;;;;;;;2.83;1.00;;;;;;;14.98;65.17;101499.44;5051579;28;20277;-80
2022/05/10 21:45:49;;;;;;;2.60;1.08;;;;;;;14.98;65.22;101497.66;5069693;28;20044;-80
2022/05/10 21:48:15;;;;;;;3.45;1.25;;;;;;;14.99;65.17;101503.81;5066096;28;20045;-80
2022/05/10 21:50:50;;;;;;;2.53;1.33;;;;;;;14.98;64.30;101497.66;5068670;28;20040;-80
2022/05/10 21:53:16;;;;;;;4.78;1.65;;;;;;;15.00;65.00;101496.75;5070800;28;20040;-80